sensor_id;sensor_type;location;lat;lon;timestamp;P1;durP1;ratioP1;P2;durP2;ratioP2
59233;SDS011;60776;51.702;7.462;2023-08-20T00:00:09;7.78;;;7.00;;
59233;SDS011;60776;51.702;7.462;2023-08-20T00:02:38;7.68;;;7.07;;
59233;SDS011;60776;51.702;7.462;2023-08-20T00:05:10;9.93;;;8.80;;
59233;SDS011;60776;51.702;7.462;2023-08-20T00:07:36;8.65;;;7.60;;
59233;SDS011;60776;51.702;7.462;2023-08-20T00:10:12;7.05;;;6.45;;
59233;SDS011;60776;51.702;7.462;2023-08-20T00:12:37;7.72;;;7.03;;
59233;SDS011;60776;51.702;7.462;2023-08-20T00:15:03;7.22;;;6.63;;
59233;SDS011;60776;51.702;7.462;2023-08-20T00:17:33;8.27;;;7.57;;
59233;SDS011;60776;51.702;7.462;2023-08-20T00:20:00;8.32;;;7.53;;
59233;SDS011;60776;51.702;7.462;2023-08-20T00:22:35;9.77;;;8.98;;
59233;SDS011;60776;51.702;7.462;2023-08-20T00:25:04;7.95;;;7.25;;
59233;SDS011;60776;51.702;7.462;2023-08-20T00:27:30;9.10;;;7.70;;
59233;SDS011;60776;51.702;7.462;2023-08-20T00:29:56;11.55;;;10.45;;
59233;SDS011;60776;51.702;7.462;2023-08-20T00:32:22;9.27;;;8.38;;
59233;SDS011;60776;51.702;7.462;2023-08-20T00:34:49;8.75;;;7.95;;
59233;SDS011;60776;51.702;7.462;2023-08-20T00:37:15;9.68;;;8.70;;
59233;SDS011;60776;51.702;7.462;2023-08-20T00:39:41;11.07;;;10.07;;
59233;SDS011;60776;51.702;7.462;2023-08-20T00:42:07;10.95;;;9.90;;
59233;SDS011;60776;51.702;7.462;2023-08-20T00:44:33;9.88;;;8.85;;
59233;SDS011;60776;51.702;7.462;2023-08-20T00:46:59;10.57;;;9.60;;
59233;SDS011;60776;51.702;7.462;2023-08-20T00:49:29;9.50;;;8.60;;
59233;SDS011;60776;51.702;7.462;2023-08-20T00:52:08;9.20;;;8.25;;
59233;SDS011;60776;51.702;7.462;2023-08-20T00:54:34;8.93;;;8.02;;
59233;SDS011;60776;51.702;7.462;2023-08-20T00:57:03;11.18;;;10.13;;
59233;SDS011;60776;51.702;7.462;2023-08-20T00:59:42;9.75;;;8.95;;
59233;SDS011;60776;51.702;7.462;2023-08-20T01:02:12;9.35;;;8.50;;
59233;SDS011;60776;51.702;7.462;2023-08-20T01:04:45;7.57;;;6.97;;
59233;SDS011;60776;51.702;7.462;2023-08-20T01:12:25;9.20;;;7.40;;
59233;SDS011;60776;51.702;7.462;2023-08-20T01:14:51;9.32;;;8.38;;
59233;SDS011;60776;51.702;7.462;2023-08-20T01:17:17;7.53;;;6.93;;
59233;SDS011;60776;51.702;7.462;2023-08-20T01:19:45;7.65;;;6.90;;
59233;SDS011;60776;51.702;7.462;2023-08-20T01:30:13;9.25;;;8.35;;
59233;SDS011;60776;51.702;7.462;2023-08-20T01:32:40;7.63;;;6.93;;
59233;SDS011;60776;51.702;7.462;2023-08-20T01:35:13;8.25;;;7.13;;
59233;SDS011;60776;51.702;7.462;2023-08-20T01:37:41;7.78;;;7.07;;
59233;SDS011;60776;51.702;7.462;2023-08-20T01:40:07;7.28;;;6.57;;
59233;SDS011;60776;51.702;7.462;2023-08-20T01:42:35;8.15;;;7.35;;
59233;SDS011;60776;51.702;7.462;2023-08-20T01:45:09;8.27;;;7.47;;
59233;SDS011;60776;51.702;7.462;2023-08-20T01:47:38;8.20;;;7.22;;
59233;SDS011;60776;51.702;7.462;2023-08-20T01:50:04;6.88;;;6.20;;
59233;SDS011;60776;51.702;7.462;2023-08-20T01:52:30;10.38;;;9.40;;
59233;SDS011;60776;51.702;7.462;2023-08-20T01:54:55;9.10;;;8.30;;
59233;SDS011;60776;51.702;7.462;2023-08-20T01:57:21;7.75;;;7.05;;
59233;SDS011;60776;51.702;7.462;2023-08-20T01:59:47;7.55;;;6.65;;
59233;SDS011;60776;51.702;7.462;2023-08-20T02:02:13;8.48;;;7.45;;
59233;SDS011;60776;51.702;7.462;2023-08-20T02:04:40;7.53;;;6.82;;
59233;SDS011;60776;51.702;7.462;2023-08-20T02:07:06;7.95;;;7.03;;
59233;SDS011;60776;51.702;7.462;2023-08-20T02:09:32;7.15;;;6.28;;
59233;SDS011;60776;51.702;7.462;2023-08-20T02:11:57;8.98;;;6.95;;
59233;SDS011;60776;51.702;7.462;2023-08-20T02:14:23;7.97;;;7.03;;
59233;SDS011;60776;51.702;7.462;2023-08-20T02:16:49;8.85;;;7.13;;
59233;SDS011;60776;51.702;7.462;2023-08-20T02:19:19;6.43;;;5.90;;
59233;SDS011;60776;51.702;7.462;2023-08-20T02:21:56;6.90;;;6.30;;
59233;SDS011;60776;51.702;7.462;2023-08-20T02:24:24;7.30;;;6.60;;
59233;SDS011;60776;51.702;7.462;2023-08-20T02:26:50;6.13;;;5.60;;
59233;SDS011;60776;51.702;7.462;2023-08-20T02:29:16;6.03;;;5.43;;
59233;SDS011;60776;51.702;7.462;2023-08-20T02:31:44;5.47;;;4.97;;
59233;SDS011;60776;51.702;7.462;2023-08-20T02:34:12;5.63;;;5.20;;
59233;SDS011;60776;51.702;7.462;2023-08-20T02:36:37;7.32;;;6.72;;
59233;SDS011;60776;51.702;7.462;2023-08-20T02:39:03;7.68;;;6.90;;
59233;SDS011;60776;51.702;7.462;2023-08-20T02:41:35;7.32;;;6.63;;
59233;SDS011;60776;51.702;7.462;2023-08-20T02:44:01;6.63;;;6.03;;
59233;SDS011;60776;51.702;7.462;2023-08-20T02:46:28;6.38;;;5.78;;
59233;SDS011;60776;51.702;7.462;2023-08-20T02:48:57;6.50;;;5.85;;
59233;SDS011;60776;51.702;7.462;2023-08-20T02:51:22;7.25;;;6.25;;
59233;SDS011;60776;51.702;7.462;2023-08-20T02:53:52;6.40;;;5.80;;
59233;SDS011;60776;51.702;7.462;2023-08-20T02:56:18;7.75;;;7.05;;
59233;SDS011;60776;51.702;7.462;2023-08-20T02:58:44;7.03;;;6.43;;
59233;SDS011;60776;51.702;7.462;2023-08-20T03:01:21;9.70;;;7.82;;
59233;SDS011;60776;51.702;7.462;2023-08-20T03:03:50;8.98;;;7.78;;
59233;SDS011;60776;51.702;7.462;2023-08-20T03:06:16;12.93;;;9.95;;
59233;SDS011;60776;51.702;7.462;2023-08-20T03:08:42;7.47;;;6.75;;
59233;SDS011;60776;51.702;7.462;2023-08-20T03:11:07;9.18;;;8.30;;
59233;SDS011;60776;51.702;7.462;2023-08-20T03:13:33;8.48;;;7.25;;
59233;SDS011;60776;51.702;7.462;2023-08-20T03:15:58;8.98;;;8.18;;
59233;SDS011;60776;51.702;7.462;2023-08-20T03:18:24;8.70;;;7.80;;
59233;SDS011;60776;51.702;7.462;2023-08-20T03:20:50;10.10;;;9.10;;
59233;SDS011;60776;51.702;7.462;2023-08-20T03:23:15;9.75;;;8.82;;
59233;SDS011;60776;51.702;7.462;2023-08-20T03:25:41;12.80;;;10.98;;
59233;SDS011;60776;51.702;7.462;2023-08-20T03:28:07;9.48;;;8.50;;
59233;SDS011;60776;51.702;7.462;2023-08-20T03:30:32;10.70;;;9.60;;
59233;SDS011;60776;51.702;7.462;2023-08-20T03:33:01;10.23;;;8.50;;
59233;SDS011;60776;51.702;7.462;2023-08-20T03:35:29;9.52;;;8.38;;
59233;SDS011;60776;51.702;7.462;2023-08-20T03:37:54;9.27;;;8.38;;
59233;SDS011;60776;51.702;7.462;2023-08-20T03:40:20;8.45;;;7.65;;
59233;SDS011;60776;51.702;7.462;2023-08-20T03:42:48;8.90;;;8.10;;
59233;SDS011;60776;51.702;7.462;2023-08-20T03:45:13;10.43;;;8.95;;
59233;SDS011;60776;51.702;7.462;2023-08-20T03:47:39;8.93;;;8.07;;
59233;SDS011;60776;51.702;7.462;2023-08-20T03:50:12;10.48;;;9.43;;
59233;SDS011;60776;51.702;7.462;2023-08-20T03:52:40;11.20;;;10.20;;
59233;SDS011;60776;51.702;7.462;2023-08-20T03:55:06;11.93;;;10.63;;
59233;SDS011;60776;51.702;7.462;2023-08-20T03:57:32;8.88;;;8.02;;
59233;SDS011;60776;51.702;7.462;2023-08-20T03:59:57;21.23;;;16.30;;
59233;SDS011;60776;51.702;7.462;2023-08-20T04:02:23;14.65;;;13.15;;
59233;SDS011;60776;51.702;7.462;2023-08-20T04:04:49;11.50;;;10.40;;
59233;SDS011;60776;51.702;7.462;2023-08-20T04:07:14;14.98;;;13.15;;
59233;SDS011;60776;51.702;7.462;2023-08-20T04:09:40;16.08;;;12.88;;
59233;SDS011;60776;51.702;7.462;2023-08-20T04:12:07;19.83;;;17.80;;
59233;SDS011;60776;51.702;7.462;2023-08-20T04:14:33;14.05;;;12.55;;
59233;SDS011;60776;51.702;7.462;2023-08-20T04:16:59;18.45;;;15.43;;
59233;SDS011;60776;51.702;7.462;2023-08-20T04:19:34;16.02;;;14.38;;
59233;SDS011;60776;51.702;7.462;2023-08-20T04:22:07;21.30;;;17.38;;
59233;SDS011;60776;51.702;7.462;2023-08-20T04:24:33;26.15;;;19.60;;
59233;SDS011;60776;51.702;7.462;2023-08-20T04:26:58;37.65;;;24.77;;
59233;SDS011;60776;51.702;7.462;2023-08-20T04:29:24;42.15;;;25.80;;
59233;SDS011;60776;51.702;7.462;2023-08-20T04:31:50;41.25;;;25.90;;
59233;SDS011;60776;51.702;7.462;2023-08-20T04:34:15;23.85;;;18.17;;
59233;SDS011;60776;51.702;7.462;2023-08-20T04:36:41;24.23;;;17.70;;
59233;SDS011;60776;51.702;7.462;2023-08-20T04:39:06;36.60;;;24.05;;
59233;SDS011;60776;51.702;7.462;2023-08-20T04:41:32;43.63;;;27.75;;
59233;SDS011;60776;51.702;7.462;2023-08-20T04:43:58;34.35;;;23.08;;
59233;SDS011;60776;51.702;7.462;2023-08-20T04:46:26;34.05;;;23.27;;
59233;SDS011;60776;51.702;7.462;2023-08-20T04:48:53;29.35;;;20.48;;
59233;SDS011;60776;51.702;7.462;2023-08-20T04:51:19;22.25;;;17.27;;
59233;SDS011;60776;51.702;7.462;2023-08-20T04:53:44;25.45;;;19.25;;
59233;SDS011;60776;51.702;7.462;2023-08-20T04:56:12;24.65;;;17.20;;
59233;SDS011;60776;51.702;7.462;2023-08-20T04:58:40;26.95;;;19.70;;
59233;SDS011;60776;51.702;7.462;2023-08-20T05:01:13;21.55;;;16.50;;
59233;SDS011;60776;51.702;7.462;2023-08-20T05:03:39;29.88;;;20.13;;
59233;SDS011;60776;51.702;7.462;2023-08-20T05:06:05;22.83;;;18.17;;
59233;SDS011;60776;51.702;7.462;2023-08-20T05:08:30;18.58;;;16.67;;
59233;SDS011;60776;51.702;7.462;2023-08-20T05:10:56;25.73;;;19.27;;
59233;SDS011;60776;51.702;7.462;2023-08-20T05:13:22;31.70;;;24.25;;
59233;SDS011;60776;51.702;7.462;2023-08-20T05:15:48;31.02;;;24.45;;
59233;SDS011;60776;51.702;7.462;2023-08-20T05:18:14;30.25;;;22.17;;
59233;SDS011;60776;51.702;7.462;2023-08-20T05:20:40;24.77;;;18.98;;
59233;SDS011;60776;51.702;7.462;2023-08-20T05:23:06;25.67;;;21.98;;
59233;SDS011;60776;51.702;7.462;2023-08-20T05:25:32;36.80;;;27.08;;
59233;SDS011;60776;51.702;7.462;2023-08-20T05:27:57;26.48;;;20.88;;
59233;SDS011;60776;51.702;7.462;2023-08-20T05:30:25;26.13;;;20.95;;
59233;SDS011;60776;51.702;7.462;2023-08-20T05:32:51;27.90;;;20.85;;
59233;SDS011;60776;51.702;7.462;2023-08-20T05:35:16;24.40;;;16.70;;
59233;SDS011;60776;51.702;7.462;2023-08-20T05:37:44;22.25;;;16.77;;
59233;SDS011;60776;51.702;7.462;2023-08-20T05:40:10;25.08;;;17.90;;
59233;SDS011;60776;51.702;7.462;2023-08-20T05:42:36;23.25;;;16.85;;
59233;SDS011;60776;51.702;7.462;2023-08-20T05:45:01;26.52;;;18.80;;
59233;SDS011;60776;51.702;7.462;2023-08-20T05:47:27;26.25;;;17.83;;
59233;SDS011;60776;51.702;7.462;2023-08-20T05:49:53;31.45;;;21.50;;
59233;SDS011;60776;51.702;7.462;2023-08-20T05:52:19;28.52;;;17.92;;
59233;SDS011;60776;51.702;7.462;2023-08-20T05:54:44;33.60;;;21.00;;
59233;SDS011;60776;51.702;7.462;2023-08-20T05:57:10;30.65;;;20.83;;
59233;SDS011;60776;51.702;7.462;2023-08-20T05:59:40;23.40;;;17.35;;
59233;SDS011;60776;51.702;7.462;2023-08-20T06:02:06;27.80;;;17.88;;
59233;SDS011;60776;51.702;7.462;2023-08-20T06:04:31;25.35;;;19.42;;
59233;SDS011;60776;51.702;7.462;2023-08-20T06:06:57;29.23;;;18.98;;
59233;SDS011;60776;51.702;7.462;2023-08-20T06:09:27;26.42;;;19.50;;
59233;SDS011;60776;51.702;7.462;2023-08-20T06:12:08;46.85;;;29.88;;
59233;SDS011;60776;51.702;7.462;2023-08-20T06:14:33;30.50;;;20.58;;
59233;SDS011;60776;51.702;7.462;2023-08-20T06:17:01;41.95;;;29.45;;
59233;SDS011;60776;51.702;7.462;2023-08-20T06:19:29;35.38;;;27.25;;
59233;SDS011;60776;51.702;7.462;2023-08-20T06:21:55;50.78;;;37.85;;
59233;SDS011;60776;51.702;7.462;2023-08-20T06:24:20;27.77;;;24.77;;
59233;SDS011;60776;51.702;7.462;2023-08-20T06:26:46;38.15;;;32.47;;
59233;SDS011;60776;51.702;7.462;2023-08-20T06:29:12;50.53;;;43.50;;
59233;SDS011;60776;51.702;7.462;2023-08-20T06:31:38;33.78;;;30.20;;
59233;SDS011;60776;51.702;7.462;2023-08-20T06:34:03;35.55;;;31.25;;
59233;SDS011;60776;51.702;7.462;2023-08-20T06:36:29;42.58;;;37.95;;
59233;SDS011;60776;51.702;7.462;2023-08-20T06:38:54;42.53;;;37.45;;
59233;SDS011;60776;51.702;7.462;2023-08-20T06:41:20;51.47;;;42.50;;
59233;SDS011;60776;51.702;7.462;2023-08-20T06:43:46;53.60;;;44.50;;
59233;SDS011;60776;51.702;7.462;2023-08-20T06:46:11;37.92;;;33.33;;
59233;SDS011;60776;51.702;7.462;2023-08-20T06:48:37;32.08;;;28.67;;
59233;SDS011;60776;51.702;7.462;2023-08-20T06:51:15;44.72;;;39.85;;
59233;SDS011;60776;51.702;7.462;2023-08-20T06:53:44;49.22;;;43.20;;
59233;SDS011;60776;51.702;7.462;2023-08-20T06:56:10;48.83;;;41.08;;
59233;SDS011;60776;51.702;7.462;2023-08-20T06:58:39;49.75;;;41.20;;
59233;SDS011;60776;51.702;7.462;2023-08-20T07:01:06;40.78;;;36.22;;
59233;SDS011;60776;51.702;7.462;2023-08-20T07:03:42;53.15;;;44.65;;
59233;SDS011;60776;51.702;7.462;2023-08-20T07:06:09;40.70;;;35.67;;
59233;SDS011;60776;51.702;7.462;2023-08-20T07:08:35;43.80;;;37.58;;
59233;SDS011;60776;51.702;7.462;2023-08-20T07:11:03;47.85;;;42.67;;
59233;SDS011;60776;51.702;7.462;2023-08-20T07:13:29;41.58;;;36.65;;
59233;SDS011;60776;51.702;7.462;2023-08-20T07:15:54;37.97;;;34.00;;
59233;SDS011;60776;51.702;7.462;2023-08-20T07:18:20;29.90;;;27.02;;
59233;SDS011;60776;51.702;7.462;2023-08-20T07:20:46;35.60;;;31.77;;
59233;SDS011;60776;51.702;7.462;2023-08-20T07:23:14;39.08;;;35.17;;
59233;SDS011;60776;51.702;7.462;2023-08-20T07:25:40;33.65;;;30.23;;
59233;SDS011;60776;51.702;7.462;2023-08-20T07:28:08;34.08;;;30.80;;
59233;SDS011;60776;51.702;7.462;2023-08-20T07:30:34;26.58;;;24.00;;
59233;SDS011;60776;51.702;7.462;2023-08-20T07:33:01;27.63;;;24.83;;
59233;SDS011;60776;51.702;7.462;2023-08-20T07:35:27;32.72;;;29.55;;
59233;SDS011;60776;51.702;7.462;2023-08-20T07:37:53;33.50;;;30.02;;
59233;SDS011;60776;51.702;7.462;2023-08-20T07:40:18;26.65;;;24.10;;
59233;SDS011;60776;51.702;7.462;2023-08-20T07:42:44;30.70;;;27.60;;
59233;SDS011;60776;51.702;7.462;2023-08-20T07:45:10;24.88;;;22.48;;
59233;SDS011;60776;51.702;7.462;2023-08-20T07:47:36;30.35;;;27.50;;
59233;SDS011;60776;51.702;7.462;2023-08-20T07:50:03;31.50;;;28.50;;
59233;SDS011;60776;51.702;7.462;2023-08-20T07:52:29;22.23;;;20.02;;
59233;SDS011;60776;51.702;7.462;2023-08-20T07:54:55;25.33;;;22.75;;
59233;SDS011;60776;51.702;7.462;2023-08-20T07:57:21;28.75;;;26.00;;
59233;SDS011;60776;51.702;7.462;2023-08-20T07:59:48;29.48;;;26.65;;
59233;SDS011;60776;51.702;7.462;2023-08-20T08:02:14;24.58;;;22.20;;
59233;SDS011;60776;51.702;7.462;2023-08-20T08:04:42;21.65;;;19.75;;
59233;SDS011;60776;51.702;7.462;2023-08-20T08:07:08;27.73;;;25.23;;
59233;SDS011;60776;51.702;7.462;2023-08-20T08:09:34;23.85;;;21.73;;
59233;SDS011;60776;51.702;7.462;2023-08-20T08:12:00;26.33;;;24.02;;
59233;SDS011;60776;51.702;7.462;2023-08-20T08:14:26;21.38;;;19.48;;
59233;SDS011;60776;51.702;7.462;2023-08-20T08:16:52;22.50;;;20.40;;
59233;SDS011;60776;51.702;7.462;2023-08-20T08:19:18;22.88;;;20.88;;
59233;SDS011;60776;51.702;7.462;2023-08-20T08:21:45;23.77;;;21.65;;
59233;SDS011;60776;51.702;7.462;2023-08-20T08:24:12;19.42;;;17.73;;
59233;SDS011;60776;51.702;7.462;2023-08-20T08:26:38;22.85;;;20.85;;
59233;SDS011;60776;51.702;7.462;2023-08-20T08:29:05;20.52;;;18.60;;
59233;SDS011;60776;51.702;7.462;2023-08-20T08:31:31;19.15;;;17.55;;
59233;SDS011;60776;51.702;7.462;2023-08-20T08:33:58;22.50;;;20.58;;
59233;SDS011;60776;51.702;7.462;2023-08-20T08:36:24;24.30;;;21.90;;
59233;SDS011;60776;51.702;7.462;2023-08-20T08:38:50;20.17;;;18.48;;
59233;SDS011;60776;51.702;7.462;2023-08-20T08:41:16;19.30;;;17.60;;
59233;SDS011;60776;51.702;7.462;2023-08-20T08:43:43;26.83;;;24.35;;
59233;SDS011;60776;51.702;7.462;2023-08-20T08:46:12;18.23;;;16.73;;
59233;SDS011;60776;51.702;7.462;2023-08-20T08:48:42;21.15;;;19.20;;
59233;SDS011;60776;51.702;7.462;2023-08-20T08:51:12;18.48;;;16.88;;
59233;SDS011;60776;51.702;7.462;2023-08-20T08:53:49;18.02;;;16.45;;
59233;SDS011;60776;51.702;7.462;2023-08-20T08:56:15;21.95;;;19.95;;
59233;SDS011;60776;51.702;7.462;2023-08-20T08:58:47;17.80;;;16.30;;
59233;SDS011;60776;51.702;7.462;2023-08-20T09:01:29;22.73;;;20.92;;
59233;SDS011;60776;51.702;7.462;2023-08-20T09:03:57;17.08;;;15.65;;
59233;SDS011;60776;51.702;7.462;2023-08-20T09:06:23;18.17;;;16.60;;
59233;SDS011;60776;51.702;7.462;2023-08-20T09:09:08;21.55;;;19.67;;
59233;SDS011;60776;51.702;7.462;2023-08-20T09:11:42;17.23;;;15.82;;
59233;SDS011;60776;51.702;7.462;2023-08-20T09:14:23;18.92;;;17.33;;
59233;SDS011;60776;51.702;7.462;2023-08-20T09:16:57;15.45;;;14.30;;
59233;SDS011;60776;51.702;7.462;2023-08-20T09:19:37;17.17;;;15.88;;
59233;SDS011;60776;51.702;7.462;2023-08-20T09:22:05;14.25;;;13.15;;
59233;SDS011;60776;51.702;7.462;2023-08-20T09:27:10;14.82;;;13.63;;
59233;SDS011;60776;51.702;7.462;2023-08-20T09:29:48;15.63;;;14.30;;
59233;SDS011;60776;51.702;7.462;2023-08-20T09:32:19;17.33;;;15.98;;
59233;SDS011;60776;51.702;7.462;2023-08-20T09:34:57;16.30;;;15.07;;
59233;SDS011;60776;51.702;7.462;2023-08-20T09:37:23;13.43;;;12.43;;
59233;SDS011;60776;51.702;7.462;2023-08-20T09:39:51;14.70;;;13.43;;
59233;SDS011;60776;51.702;7.462;2023-08-20T09:42:17;18.15;;;16.75;;
59233;SDS011;60776;51.702;7.462;2023-08-20T09:44:50;17.90;;;16.52;;
59233;SDS011;60776;51.702;7.462;2023-08-20T09:47:20;16.38;;;14.90;;
59233;SDS011;60776;51.702;7.462;2023-08-20T09:49:49;12.57;;;11.57;;
59233;SDS011;60776;51.702;7.462;2023-08-20T09:52:29;14.77;;;13.48;;
59233;SDS011;60776;51.702;7.462;2023-08-20T09:55:08;14.63;;;13.32;;
59233;SDS011;60776;51.702;7.462;2023-08-20T09:57:36;21.63;;;19.73;;
59233;SDS011;60776;51.702;7.462;2023-08-20T10:00:09;21.75;;;19.90;;
59233;SDS011;60776;51.702;7.462;2023-08-20T10:02:37;22.77;;;20.73;;
59233;SDS011;60776;51.702;7.462;2023-08-20T10:05:07;21.55;;;19.65;;
59233;SDS011;60776;51.702;7.462;2023-08-20T10:07:37;19.90;;;17.95;;
59233;SDS011;60776;51.702;7.462;2023-08-20T10:10:03;18.10;;;16.63;;
59233;SDS011;60776;51.702;7.462;2023-08-20T10:12:31;19.48;;;17.77;;
59233;SDS011;60776;51.702;7.462;2023-08-20T10:14:57;21.63;;;19.73;;
59233;SDS011;60776;51.702;7.462;2023-08-20T10:17:24;12.25;;;11.13;;
59233;SDS011;60776;51.702;7.462;2023-08-20T10:19:52;14.27;;;13.07;;
59233;SDS011;60776;51.702;7.462;2023-08-20T10:22:18;15.88;;;14.48;;
59233;SDS011;60776;51.702;7.462;2023-08-20T10:24:48;12.27;;;11.27;;
59233;SDS011;60776;51.702;7.462;2023-08-20T10:27:24;12.90;;;11.63;;
59233;SDS011;60776;51.702;7.462;2023-08-20T10:29:54;11.70;;;10.60;;
59233;SDS011;60776;51.702;7.462;2023-08-20T10:32:20;10.52;;;9.63;;
59233;SDS011;60776;51.702;7.462;2023-08-20T10:35:11;10.70;;;9.70;;
59233;SDS011;60776;51.702;7.462;2023-08-20T10:37:38;10.38;;;9.55;;
59233;SDS011;60776;51.702;7.462;2023-08-20T10:40:05;17.75;;;13.60;;
59233;SDS011;60776;51.702;7.462;2023-08-20T10:42:32;11.20;;;10.10;;
59233;SDS011;60776;51.702;7.462;2023-08-20T10:45:07;9.48;;;8.70;;
59233;SDS011;60776;51.702;7.462;2023-08-20T10:50:10;9.52;;;8.63;;
59233;SDS011;60776;51.702;7.462;2023-08-20T10:52:40;8.55;;;7.85;;
59233;SDS011;60776;51.702;7.462;2023-08-20T10:55:11;9.25;;;8.45;;
59233;SDS011;60776;51.702;7.462;2023-08-20T10:57:39;7.18;;;6.57;;
59233;SDS011;60776;51.702;7.462;2023-08-20T11:00:05;6.80;;;6.28;;
59233;SDS011;60776;51.702;7.462;2023-08-20T11:02:39;8.13;;;7.43;;
59233;SDS011;60776;51.702;7.462;2023-08-20T11:05:16;8.60;;;7.78;;
59233;SDS011;60776;51.702;7.462;2023-08-20T11:07:44;7.88;;;7.28;;
59233;SDS011;60776;51.702;7.462;2023-08-20T11:10:12;7.18;;;6.57;;
59233;SDS011;60776;51.702;7.462;2023-08-20T11:12:42;8.10;;;7.38;;
59233;SDS011;60776;51.702;7.462;2023-08-20T11:15:09;6.75;;;6.07;;
59233;SDS011;60776;51.702;7.462;2023-08-20T11:17:40;6.10;;;5.60;;
59233;SDS011;60776;51.702;7.462;2023-08-20T11:20:10;6.13;;;5.72;;
59233;SDS011;60776;51.702;7.462;2023-08-20T11:22:38;7.35;;;6.38;;
59233;SDS011;60776;51.702;7.462;2023-08-20T11:25:04;8.02;;;7.25;;
59233;SDS011;60776;51.702;7.462;2023-08-20T11:27:30;7.45;;;6.15;;
59233;SDS011;60776;51.702;7.462;2023-08-20T11:29:57;6.18;;;5.68;;
59233;SDS011;60776;51.702;7.462;2023-08-20T11:32:23;8.27;;;7.45;;
59233;SDS011;60776;51.702;7.462;2023-08-20T11:34:49;5.97;;;5.47;;
59233;SDS011;60776;51.702;7.462;2023-08-20T11:37:18;6.10;;;5.60;;
59233;SDS011;60776;51.702;7.462;2023-08-20T11:39:47;6.93;;;6.30;;
59233;SDS011;60776;51.702;7.462;2023-08-20T11:42:14;5.75;;;5.10;;
59233;SDS011;60776;51.702;7.462;2023-08-20T11:44:45;6.05;;;5.55;;
59233;SDS011;60776;51.702;7.462;2023-08-20T11:47:18;5.90;;;5.40;;
59233;SDS011;60776;51.702;7.462;2023-08-20T11:49:44;5.30;;;4.90;;
59233;SDS011;60776;51.702;7.462;2023-08-20T11:52:10;4.82;;;4.43;;
59233;SDS011;60776;51.702;7.462;2023-08-20T11:54:38;5.82;;;5.43;;
59233;SDS011;60776;51.702;7.462;2023-08-20T11:57:04;5.15;;;4.70;;
59233;SDS011;60776;51.702;7.462;2023-08-20T11:59:31;5.07;;;4.68;;
59233;SDS011;60776;51.702;7.462;2023-08-20T12:01:58;6.32;;;5.75;;
59233;SDS011;60776;51.702;7.462;2023-08-20T12:04:26;6.28;;;5.68;;
59233;SDS011;60776;51.702;7.462;2023-08-20T12:07:02;5.40;;;5.00;;
59233;SDS011;60776;51.702;7.462;2023-08-20T12:09:32;4.97;;;4.57;;
59233;SDS011;60776;51.702;7.462;2023-08-20T12:11:58;6.30;;;5.72;;
59233;SDS011;60776;51.702;7.462;2023-08-20T12:14:24;4.80;;;4.13;;
59233;SDS011;60776;51.702;7.462;2023-08-20T12:16:55;6.07;;;5.68;;
59233;SDS011;60776;51.702;7.462;2023-08-20T12:19:21;12.25;;;11.27;;
59233;SDS011;60776;51.702;7.462;2023-08-20T12:21:48;7.05;;;5.95;;
59233;SDS011;60776;51.702;7.462;2023-08-20T12:24:14;6.75;;;6.05;;
59233;SDS011;60776;51.702;7.462;2023-08-20T12:26:40;5.82;;;5.43;;
59233;SDS011;60776;51.702;7.462;2023-08-20T12:29:06;4.85;;;4.45;;
59233;SDS011;60776;51.702;7.462;2023-08-20T12:31:32;4.75;;;4.15;;
59233;SDS011;60776;51.702;7.462;2023-08-20T12:33:57;4.82;;;4.47;;
59233;SDS011;60776;51.702;7.462;2023-08-20T12:36:23;5.40;;;4.47;;
59233;SDS011;60776;51.702;7.462;2023-08-20T12:38:49;4.80;;;4.40;;
59233;SDS011;60776;51.702;7.462;2023-08-20T12:41:14;4.93;;;4.38;;
59233;SDS011;60776;51.702;7.462;2023-08-20T12:43:40;5.20;;;4.78;;
59233;SDS011;60776;51.702;7.462;2023-08-20T12:46:06;4.93;;;4.53;;
59233;SDS011;60776;51.702;7.462;2023-08-20T12:48:32;4.40;;;4.00;;
59233;SDS011;60776;51.702;7.462;2023-08-20T12:50:58;5.22;;;4.82;;
59233;SDS011;60776;51.702;7.462;2023-08-20T12:53:23;4.97;;;4.57;;
59233;SDS011;60776;51.702;7.462;2023-08-20T12:55:49;5.03;;;4.60;;
59233;SDS011;60776;51.702;7.462;2023-08-20T12:58:15;5.38;;;4.90;;
59233;SDS011;60776;51.702;7.462;2023-08-20T13:00:40;5.30;;;4.70;;
59233;SDS011;60776;51.702;7.462;2023-08-20T13:03:06;5.20;;;4.70;;
59233;SDS011;60776;51.702;7.462;2023-08-20T13:05:32;4.80;;;4.10;;
59233;SDS011;60776;51.702;7.462;2023-08-20T13:07:58;4.22;;;3.90;;
59233;SDS011;60776;51.702;7.462;2023-08-20T13:10:24;4.57;;;4.18;;
59233;SDS011;60776;51.702;7.462;2023-08-20T13:12:53;4.55;;;4.15;;
59233;SDS011;60776;51.702;7.462;2023-08-20T13:15:21;4.40;;;4.10;;
59233;SDS011;60776;51.702;7.462;2023-08-20T13:17:48;5.15;;;4.65;;
59233;SDS011;60776;51.702;7.462;2023-08-20T13:20:15;5.15;;;4.25;;
59233;SDS011;60776;51.702;7.462;2023-08-20T13:22:46;4.05;;;3.75;;
59233;SDS011;60776;51.702;7.462;2023-08-20T13:25:15;4.57;;;3.85;;
59233;SDS011;60776;51.702;7.462;2023-08-20T13:27:41;3.65;;;3.33;;
59233;SDS011;60776;51.702;7.462;2023-08-20T13:30:07;3.78;;;3.47;;
59233;SDS011;60776;51.702;7.462;2023-08-20T13:32:33;4.50;;;4.10;;
59233;SDS011;60776;51.702;7.462;2023-08-20T13:35:00;3.95;;;3.65;;
59233;SDS011;60776;51.702;7.462;2023-08-20T13:37:25;3.78;;;3.47;;
59233;SDS011;60776;51.702;7.462;2023-08-20T13:39:52;4.65;;;4.20;;
59233;SDS011;60776;51.702;7.462;2023-08-20T13:42:18;3.95;;;3.40;;
59233;SDS011;60776;51.702;7.462;2023-08-20T13:44:43;4.03;;;3.42;;
59233;SDS011;60776;51.702;7.462;2023-08-20T13:47:09;3.85;;;3.40;;
59233;SDS011;60776;51.702;7.462;2023-08-20T13:49:34;3.78;;;3.47;;
59233;SDS011;60776;51.702;7.462;2023-08-20T13:52:00;4.53;;;3.65;;
59233;SDS011;60776;51.702;7.462;2023-08-20T13:54:26;3.95;;;3.65;;
59233;SDS011;60776;51.702;7.462;2023-08-20T13:56:51;4.80;;;4.25;;
59233;SDS011;60776;51.702;7.462;2023-08-20T13:59:19;7.97;;;5.00;;
59233;SDS011;60776;51.702;7.462;2023-08-20T14:01:45;4.68;;;4.18;;
59233;SDS011;60776;51.702;7.462;2023-08-20T14:04:10;4.90;;;4.38;;
59233;SDS011;60776;51.702;7.462;2023-08-20T14:06:36;6.43;;;4.97;;
59233;SDS011;60776;51.702;7.462;2023-08-20T14:09:02;6.90;;;5.55;;
59233;SDS011;60776;51.702;7.462;2023-08-20T14:11:29;4.22;;;3.83;;
59233;SDS011;60776;51.702;7.462;2023-08-20T14:13:58;4.57;;;3.83;;
59233;SDS011;60776;51.702;7.462;2023-08-20T14:16:26;4.30;;;3.90;;
59233;SDS011;60776;51.702;7.462;2023-08-20T14:18:51;4.50;;;3.63;;
59233;SDS011;60776;51.702;7.462;2023-08-20T14:21:17;4.38;;;3.65;;
59233;SDS011;60776;51.702;7.462;2023-08-20T14:23:45;4.15;;;3.85;;
59233;SDS011;60776;51.702;7.462;2023-08-20T14:26:10;3.90;;;3.60;;
59233;SDS011;60776;51.702;7.462;2023-08-20T14:28:36;4.55;;;4.15;;
59233;SDS011;60776;51.702;7.462;2023-08-20T14:31:11;4.57;;;3.60;;
59233;SDS011;60776;51.702;7.462;2023-08-20T14:33:38;5.63;;;3.85;;
59233;SDS011;60776;51.702;7.462;2023-08-20T14:36:04;3.92;;;3.33;;
59233;SDS011;60776;51.702;7.462;2023-08-20T14:38:30;4.07;;;2.92;;
59233;SDS011;60776;51.702;7.462;2023-08-20T14:40:59;4.07;;;2.90;;
59233;SDS011;60776;51.702;7.462;2023-08-20T14:43:32;2.60;;;2.30;;
59233;SDS011;60776;51.702;7.462;2023-08-20T14:46:01;3.90;;;2.50;;
59233;SDS011;60776;51.702;7.462;2023-08-20T14:48:26;3.75;;;2.90;;
59233;SDS011;60776;51.702;7.462;2023-08-20T14:50:53;3.85;;;2.90;;
59233;SDS011;60776;51.702;7.462;2023-08-20T14:53:29;3.90;;;2.80;;
59233;SDS011;60776;51.702;7.462;2023-08-20T14:55:57;4.35;;;2.97;;